Time;durP1;ratioP1;P1;durP2;ratioP2;P2;SDS_P1;SDS_P2;PMS_P1;PMS_P2;Temp;Humidity;BMP_temperature;BMP_pressure;BME280_temperature;BME280_humidity;BME280_pressure;Samples;Min_cycle;Max_cycle;Signal;HPM_P1;HPM_P2
2024/04/13 00:05:44;;;;;;;2.80;0.88;;;15.90;1.00;;;;;;21978886;26;20495;-44
2024/04/13 00:15:57;;;;;;;4.72;1.10;;;15.90;1.00;;;;;;21986459;26;20002;-43
2024/04/13 00:25:58;;;;;;;1.88;0.80;;;15.90;1.00;;;;;;21985627;26;20956;-44
2024/04/13 00:36:00;;;;;;;2.75;0.80;;;15.70;1.00;;;;;;21978273;26;20863;-44
2024/04/13 00:46:07;;;;;;;3.30;0.90;;;15.60;1.00;;;;;;21988502;26;20043;-44
2024/04/13 00:56:10;;;;;;;3.17;1.10;;;15.50;1.00;;;;;;21975239;26;20360;-43
2024/04/13 01:06:11;;;;;;;2.75;1.08;;;15.40;1.00;;;;;;21958951;26;20017;-43
2024/04/13 01:16:14;;;;;;;2.05;1.00;;;15.30;1.00;;;;;;21978638;26;20005;-44
2024/04/13 01:26:16;;;;;;;3.55;1.63;;;15.10;1.00;;;;;;21969348;26;20490;-44
2024/04/13 01:36:17;;;;;;;3.45;1.85;;;14.90;1.00;;;;;;21973833;26;20001;-43
2024/04/13 01:46:18;;;;;;;4.00;1.88;;;14.70;1.00;;;;;;21975085;26;20022;-43
2024/04/13 01:56:19;;;;;;;5.72;2.15;;;14.50;1.00;;;;;;21973418;26;20025;-44
2024/04/13 02:06:20;;;;;;;4.38;2.10;;;14.30;1.00;;;;;;21964279;26;20049;-43
2024/04/13 02:16:21;;;;;;;3.47;2.08;;;14.10;1.00;;;;;;21973339;26;20004;-43
2024/04/13 02:26:22;;;;;;;6.28;2.30;;;14.00;1.00;;;;;;21976450;26;20125;-43
2024/04/13 02:36:23;;;;;;;2.85;1.90;;;13.90;1.50;;;;;;21970859;26;19997;-43
2024/04/13 02:46:24;;;;;;;3.92;1.80;;;13.80;5.70;;;;;;21974666;26;20470;-43
2024/04/13 02:56:25;;;;;;;4.97;2.50;;;13.70;7.80;;;;;;21977181;26;20004;-43
2024/04/13 03:06:26;;;;;;;5.30;1.77;;;13.60;9.30;;;;;;21962357;26;20014;-44
2024/04/13 03:16:27;;;;;;;5.15;2.05;;;13.50;10.00;;;;;;21976238;26;20027;-43
2024/04/13 03:26:28;;;;;;;6.55;2.10;;;13.40;12.10;;;;;;21987387;26;20002;-44
2024/04/13 03:36:30;;;;;;;4.30;2.25;;;13.40;12.30;;;;;;21985894;26;20023;-44
2024/04/13 03:46:31;;;;;;;5.95;2.20;;;13.40;15.90;;;;;;21983323;26;19997;-44
2024/04/13 03:56:32;;;;;;;5.68;2.92;;;13.20;17.10;;;;;;21977764;26;20346;-44
2024/04/13 04:06:33;;;;;;;4.20;2.80;;;13.10;19.80;;;;;;21985049;26;20390;-44
2024/04/13 04:16:34;;;;;;;4.28;2.72;;;13.00;23.60;;;;;;21988217;26;19993;-43
2024/04/13 04:26:35;;;;;;;5.97;3.10;;;12.90;24.10;;;;;;21983433;26;19994;-43
2024/04/13 04:36:36;;;;;;;6.35;3.15;;;12.90;27.90;;;;;;21982849;26;20309;-43
2024/04/13 04:46:37;;;;;;;6.03;3.17;;;12.80;34.10;;;;;;21979178;26;20123;-44
2024/04/13 04:56:38;;;;;;;6.47;3.03;;;12.80;37.60;;;;;;21980716;26;20116;-44
2024/04/13 05:06:39;;;;;;;5.10;3.28;;;12.70;38.90;;;;;;21973852;26;20468;-44
2024/04/13 05:16:40;;;;;;;5.32;3.08;;;12.80;39.00;;;;;;21980978;26;20004;-43
2024/04/13 05:26:42;;;;;;;5.30;3.17;;;12.80;44.60;;;;;;21970951;26;20410;-43
2024/04/13 05:36:45;;;;;;;5.90;3.20;;;12.80;51.30;;;;;;21972485;26;19998;-44
2024/04/13 05:46:46;;;;;;;6.22;3.50;;;12.80;56.50;;;;;;21966687;26;20028;-43
2024/04/13 05:56:47;;;;;;;7.68;3.85;;;12.80;53.90;;;;;;21969984;26;20036;-43
2024/04/13 06:06:49;;;;;;;5.25;3.50;;;12.90;53.40;;;;;;21948388;26;20040;-44
2024/04/13 06:16:50;;;;;;;7.38;3.35;;;13.10;53.00;;;;;;21969292;26;20012;-44
2024/04/13 06:26:51;;;;;;;6.18;3.13;;;13.30;43.50;;;;;;21968650;26;19997;-44
2024/04/13 06:36:52;;;;;;;6.03;3.30;;;13.60;38.80;;;;;;21966310;26;20009;-44
2024/04/13 06:46:53;;;;;;;5.97;3.60;;;14.10;28.90;;;;;;21968264;26;20009;-43
2024/04/13 06:56:54;;;;;;;6.05;3.00;;;14.30;21.70;;;;;;21987741;26;20005;-44
2024/04/13 07:06:55;;;;;;;6.05;3.35;;;14.60;15.10;;;;;;21986834;26;20045;-44
2024/04/13 07:16:56;;;;;;;7.03;3.20;;;14.80;9.50;;;;;;21921036;26;21541;-44
2024/04/13 07:26:57;;;;;;;6.18;3.38;;;15.10;4.50;;;;;;21983043;26;20010;-44
2024/04/13 07:36:58;;;;;;;8.15;3.60;;;15.30;1.30;;;;;;21963707;26;20101;-44
2024/04/13 07:46:59;;;;;;;6.00;3.22;;;15.50;1.00;;;;;;21981333;26;20008;-44
2024/04/13 07:57:00;;;;;;;5.65;3.50;;;15.70;1.00;;;;;;21983266;26;20603;-44
2024/04/13 08:07:01;;;;;;;7.40;4.15;;;15.90;1.00;;;;;;21973023;26;20563;-44
2024/04/13 08:17:04;;;;;;;6.28;3.55;;;16.20;1.00;;;;;;21976813;26;20657;-44
2024/04/13 08:27:06;;;;;;;5.97;3.53;;;16.50;1.00;;;;;;21979417;26;20020;-44
2024/04/13 08:37:07;;;;;;;5.03;3.63;;;16.80;1.00;;;;;;21963893;26;20475;-44
2024/04/13 08:47:10;;;;;;;6.05;3.63;;;17.10;1.00;;;;;;21977062;26;20017;-44
2024/04/13 08:57:18;;;;;;;5.03;3.00;;;17.40;1.00;;;;;;21978097;26;20031;-44
2024/04/13 09:07:21;;;;;;;6.28;3.28;;;17.70;1.00;;;;;;21975545;26;20492;-44
2024/04/13 09:17:22;;;;;;;5.28;2.70;;;18.10;1.00;;;;;;22006390;26;20002;-43
2024/04/13 09:27:28;;;;;;;6.15;3.08;;;18.50;1.00;;;;;;21999212;26;20021;-44
2024/04/13 09:37:29;;;;;;;4.47;2.50;;;18.80;1.00;;;;;;21992142;26;20001;-44
2024/04/13 09:47:30;;;;;;;6.07;3.38;;;19.10;1.00;;;;;;21994203;26;20008;-44
2024/04/13 09:57:31;;;;;;;7.30;4.22;;;19.40;1.00;;;;;;21993510;26;20409;-44
2024/04/13 10:07:33;;;;;;;8.25;5.47;;;19.60;1.00;;;;;;21982685;26;20009;-44
2024/04/13 10:17:36;;;;;;;9.43;6.38;;;19.70;1.00;;;;;;21987657;26;20001;-44
2024/04/13 10:27:38;;;;;;;12.20;8.13;;;19.70;1.00;;;;;;21994801;26;20027;-44
2024/04/13 10:37:39;;;;;;;14.05;9.05;;;19.70;1.00;;;;;;21990637;26;20049;-44
2024/04/13 10:47:41;;;;;;;14.70;9.50;;;20.00;1.00;;;;;;21987768;26;20041;-44
2024/04/13 10:57:42;;;;;;;16.05;10.90;;;20.40;1.00;;;;;;21993534;26;19997;-44
2024/04/13 11:07:43;;;;;;;15.38;10.98;;;20.60;1.00;;;;;;21986657;26;20156;-44
2024/04/13 11:17:44;;;;;;;14.85;9.60;;;21.10;1.00;;;;;;21995680;26;20142;-44
2024/04/13 11:27:46;;;;;;;12.98;9.13;;;21.50;1.00;;;;;;21984847;26;20006;-44
2024/04/13 11:38:00;;;;;;;13.20;8.60;;;21.60;1.00;;;;;;21969018;26;19996;-44
2024/04/13 11:48:01;;;;;;;11.43;8.63;;;21.90;1.00;;;;;;21979461;26;20011;-44
2024/04/13 11:58:02;;;;;;;10.35;6.50;;;21.90;1.00;;;;;;21983276;26;20002;-44
2024/04/13 12:08:03;;;;;;;9.27;4.95;;;22.10;1.00;;;;;;21974057;26;19997;-44
2024/04/13 12:18:05;;;;;;;6.07;3.28;;;22.60;1.00;;;;;;21988570;26;20008;-44
2024/04/13 12:28:07;;;;;;;9.40;4.63;;;23.30;1.00;;;;;;21979913;26;20001;-44
2024/04/13 12:38:08;;;;;;;6.50;5.20;;;24.00;1.00;;;;;;21995755;26;20016;-44
2024/04/13 12:48:09;;;;;;;7.78;5.88;;;23.80;1.00;;;;;;22000902;26;20336;-44
2024/04/13 12:58:12;;;;;;;9.88;6.20;;;23.20;1.00;;;;;;21995184;26;20005;-45
2024/04/13 13:08:13;;;;;;;5.93;3.72;;;23.00;1.00;;;;;;21986682;26;20016;-44
2024/04/13 13:18:14;;;;;;;6.25;3.03;;;23.80;1.00;;;;;;21996401;26;20005;-44
2024/04/13 13:28:15;;;;;;;5.80;4.00;;;24.30;1.00;;;;;;21996494;26;20000;-44
2024/04/13 13:38:16;;;;;;;5.30;3.10;;;24.50;1.00;;;;;;21990806;26;20450;-44
2024/04/13 13:48:17;;;;;;;5.47;2.90;;;25.10;1.00;;;;;;21981390;26;20456;-45
2024/04/13 13:58:19;;;;;;;5.72;3.67;;;24.60;1.00;;;;;;21987712;26;20040;-44
2024/04/13 14:08:19;;;;;;;5.63;3.72;;;24.60;1.00;;;;;;21930870;26;20354;-44
2024/04/13 14:18:20;;;;;;;6.35;3.45;;;24.50;1.00;;;;;;21976574;26;20016;-44
2024/04/13 14:28:21;;;;;;;6.35;3.35;;;24.30;1.00;;;;;;21958956;26;20076;-44
2024/04/13 14:38:23;;;;;;;6.55;3.15;;;23.90;1.00;;;;;;21986231;26;20060;-44
2024/04/13 14:48:24;;;;;;;5.65;2.75;;;23.90;1.00;;;;;;22037797;26;20349;-44
2024/04/13 14:58:25;;;;;;;5.65;3.05;;;23.70;1.00;;;;;;22017626;26;20000;-44
2024/04/13 15:08:26;;;;;;;4.63;2.95;;;23.60;1.00;;;;;;22002213;26;20005;-44
2024/04/13 15:18:27;;;;;;;5.80;2.90;;;23.70;1.00;;;;;;22010045;26;20005;-45
2024/04/13 15:28:28;;;;;;;4.50;2.50;;;23.40;1.00;;;;;;22022309;26;20009;-44
2024/04/13 15:38:29;;;;;;;5.65;2.58;;;23.00;1.00;;;;;;21966626;26;20088;-45
2024/04/13 15:48:30;;;;;;;4.45;2.50;;;22.60;1.00;;;;;;21986313;26;20040;-45
2024/04/13 15:58:31;;;;;;;5.43;2.83;;;22.70;1.00;;;;;;21968317;26;20075;-44
2024/04/13 16:08:32;;;;;;;4.95;2.50;;;22.40;1.00;;;;;;21979813;26;20017;-44
2024/04/13 16:18:34;;;;;;;5.70;2.50;;;22.20;1.00;;;;;;21957345;26;20015;-45
2024/04/13 16:28:35;;;;;;;6.68;2.45;;;22.10;1.00;;;;;;22003048;26;20203;-45
2024/04/13 16:38:36;;;;;;;7.43;2.25;;;22.00;1.00;;;;;;21982128;26;20658;-45
2024/04/13 16:48:37;;;;;;;7.53;2.40;;;21.90;1.00;;;;;;21997686;26;20060;-45
2024/04/13 16:58:38;;;;;;;8.02;4.40;;;21.80;1.00;;;;;;21946602;26;20011;-45
2024/04/13 17:08:39;;;;;;;6.32;3.70;;;21.50;1.00;;;;;;21979752;26;20850;-45
2024/04/13 17:18:40;;;;;;;5.50;3.15;;;21.30;1.00;;;;;;21934962;26;20000;-44
2024/04/13 17:28:41;;;;;;;6.35;2.35;;;21.00;1.00;;;;;;21949157;26;20184;-45
2024/04/13 17:38:44;;;;;;;4.07;2.10;;;20.70;1.00;;;;;;21939145;26;20048;-44
2024/04/13 17:48:45;;;;;;;4.82;2.10;;;20.50;1.00;;;;;;21986318;26;20016;-44
2024/04/13 17:58:46;;;;;;;4.22;2.00;;;20.30;1.00;;;;;;21959782;26;20009;-45
2024/04/13 18:08:47;;;;;;;4.93;1.70;;;20.10;1.00;;;;;;21973247;26;20046;-42
2024/04/13 18:18:51;;;;;;;5.22;2.20;;;20.00;1.00;;;;;;21949024;26;20044;-43
2024/04/13 18:28:53;;;;;;;5.32;2.65;;;19.80;1.00;;;;;;21944483;26;20422;-42
2024/04/13 18:38:54;;;;;;;6.60;1.98;;;19.70;1.00;;;;;;21955349;26;20023;-42
2024/04/13 18:48:55;;;;;;;5.25;2.63;;;19.50;1.00;;;;;;21979874;26;20344;-42
2024/04/13 18:58:57;;;;;;;5.55;2.63;;;19.30;1.00;;;;;;22002291;26;20653;-42
2024/04/13 19:08:58;;;;;;;5.97;1.50;;;19.00;1.00;;;;;;21959908;26;20364;-42
2024/04/13 19:18:59;;;;;;;4.95;1.00;;;18.70;1.00;;;;;;21994474;26;20001;-42
2024/04/13 19:29:00;;;;;;;2.65;0.80;;;18.50;1.00;;;;;;22004361;26;20106;-44
2024/04/13 19:39:02;;;;;;;3.10;1.00;;;18.30;1.00;;;;;;22001995;26;20012;-44
2024/04/13 19:49:02;;;;;;;3.25;0.93;;;18.20;1.00;;;;;;22000512;26;19997;-44
2024/04/13 19:59:03;;;;;;;4.53;1.10;;;18.00;1.00;;;;;;21986310;26;20013;-44
2024/04/13 20:09:05;;;;;;;2.78;1.05;;;17.90;1.00;;;;;;21990560;26;20012;-44
2024/04/13 20:19:07;;;;;;;2.88;1.00;;;17.80;1.00;;;;;;21975493;26;20334;-44
2024/04/13 20:29:08;;;;;;;3.53;1.30;;;17.60;1.00;;;;;;21982517;26;20009;-44
2024/04/13 20:39:10;;;;;;;4.28;1.20;;;17.30;1.00;;;;;;21984050;26;20009;-44
2024/04/13 20:49:11;;;;;;;4.78;1.33;;;17.10;1.00;;;;;;21978979;26;20009;-44
2024/04/13 20:59:12;;;;;;;3.83;1.40;;;16.80;1.00;;;;;;21982052;26;20034;-44
2024/04/13 21:09:13;;;;;;;5.57;1.25;;;16.50;1.00;;;;;;21982954;26;20343;-44
2024/04/13 21:19:14;;;;;;;3.83;1.40;;;16.40;1.00;;;;;;21971987;26;20608;-44
2024/04/13 21:29:16;;;;;;;6.03;1.75;;;16.30;1.00;;;;;;21984745;26;20386;-44
2024/04/13 21:39:19;;;;;;;7.13;1.48;;;16.10;1.00;;;;;;21978208;26;20491;-44
2024/04/13 21:49:20;;;;;;;4.95;1.60;;;15.90;1.00;;;;;;21973830;26;20005;-44
2024/04/13 21:59:21;;;;;;;6.85;2.00;;;15.70;1.00;;;;;;21979683;26;20019;-44
2024/04/13 22:09:22;;;;;;;6.05;2.58;;;15.40;1.00;;;;;;21977227;26;20001;-44
2024/04/13 22:19:24;;;;;;;8.57;2.40;;;15.10;1.00;;;;;;21969901;26;20013;-44
2024/04/13 22:29:27;;;;;;;7.25;2.65;;;14.90;1.00;;;;;;21981490;26;20457;-44
2024/04/13 22:39:29;;;;;;;6.80;2.63;;;14.90;1.00;;;;;;21974798;26;20591;-44
2024/04/13 22:49:30;;;;;;;9.45;2.60;;;14.80;1.00;;;;;;21977431;26;20498;-44
2024/04/13 22:59:32;;;;;;;8.20;2.53;;;14.70;1.00;;;;;;21975267;26;20433;-44
2024/04/13 23:09:33;;;;;;;11.70;2.85;;;14.70;1.00;;;;;;21967836;26;20613;-44
2024/04/13 23:19:34;;;;;;;10.07;2.90;;;14.80;1.00;;;;;;21945390;26;20046;-44
2024/04/13 23:29:35;;;;;;;12.93;3.80;;;14.70;1.00;;;;;;21964205;26;20481;-44
2024/04/13 23:39:36;;;;;;;15.25;3.58;;;14.80;1.00;;;;;;21971785;26;20002;-44
2024/04/13 23:49:37;;;;;;;13.40;3.58;;;14.70;1.00;;;;;;21974427;26;20028;-44
2024/04/13 23:59:38;;;;;;;12.57;3.40;;;14.60;1.00;;;;;;21982796;26;20389;-44
